createdAt,value
2022-08-20T00:00:09.332Z,21.42
2022-08-20T00:01:09.283Z,21.43
2022-08-20T00:02:09.330Z,21.43
2022-08-20T00:03:09.437Z,21.44
2022-08-20T00:04:09.261Z,21.44
2022-08-20T00:05:09.269Z,21.43
2022-08-20T00:06:09.284Z,21.43
2022-08-20T00:07:09.240Z,21.43
2022-08-20T00:08:09.266Z,21.43
2022-08-20T00:09:09.232Z,21.42
2022-08-20T00:10:09.218Z,21.42
2022-08-20T00:11:09.189Z,21.44
2022-08-20T00:12:09.162Z,21.42
2022-08-20T00:13:19.222Z,21.43
2022-08-20T00:14:20.208Z,21.44
2022-08-20T00:15:09.144Z,21.43
2022-08-20T00:16:09.161Z,21.43
2022-08-20T00:17:09.136Z,21.43
2022-08-20T00:18:09.112Z,21.43
2022-08-20T00:19:09.103Z,21.43
2022-08-20T00:20:09.089Z,21.43
2022-08-20T00:21:09.080Z,21.46
2022-08-20T00:22:09.103Z,21.46
2022-08-20T00:23:10.621Z,21.47
2022-08-20T00:24:09.069Z,21.44
2022-08-20T00:25:09.040Z,21.46
2022-08-20T00:26:09.066Z,21.47
2022-08-20T00:27:09.022Z,21.46
2022-08-20T00:28:09.014Z,21.47
2022-08-20T00:29:09.005Z,21.46
2022-08-20T00:30:08.986Z,21.46
2022-08-20T00:31:08.983Z,21.44
2022-08-20T00:32:08.963Z,21.46
2022-08-20T00:33:08.963Z,21.44
2022-08-20T00:34:08.944Z,21.44
2022-08-20T00:35:08.930Z,21.44
2022-08-20T00:36:08.922Z,21.43
2022-08-20T00:37:08.903Z,21.43
2022-08-20T00:38:08.891Z,21.42
2022-08-20T00:39:08.890Z,21.42
2022-08-20T00:40:22.067Z,21.40
2022-08-20T00:41:09.875Z,21.38
2022-08-20T00:42:08.853Z,21.40
2022-08-20T00:43:08.835Z,21.40
2022-08-20T00:44:08.835Z,21.38
2022-08-20T00:45:08.822Z,21.42
2022-08-20T00:46:08.839Z,21.42
2022-08-20T00:47:08.801Z,21.40
2022-08-20T00:48:08.817Z,21.38
2022-08-20T00:49:08.797Z,21.37
2022-08-20T00:50:08.778Z,21.37
2022-08-20T00:51:08.768Z,21.35
2022-08-20T00:52:08.750Z,21.35
2022-08-20T00:53:08.856Z,21.34
2022-08-20T00:54:08.717Z,21.32
2022-08-20T00:55:08.737Z,21.29
2022-08-20T00:56:08.698Z,21.29
2022-08-20T00:57:08.695Z,21.29
2022-08-20T00:58:09.013Z,21.28
2022-08-20T00:59:08.712Z,21.27
2022-08-20T01:00:08.653Z,21.28
2022-08-20T01:01:08.659Z,21.25
2022-08-20T01:02:08.697Z,21.25
2022-08-20T01:03:08.667Z,21.24
2022-08-20T01:04:08.678Z,21.24
2022-08-20T01:05:08.621Z,21.24
2022-08-20T01:06:08.590Z,21.22
2022-08-20T01:07:08.591Z,21.22
2022-08-20T01:08:08.591Z,21.21
2022-08-20T01:09:08.573Z,21.19
2022-08-20T01:10:08.569Z,21.19
2022-08-20T01:11:08.541Z,21.19
2022-08-20T01:12:08.526Z,21.19
2022-08-20T01:13:08.522Z,21.21
2022-08-20T01:14:08.509Z,21.17
2022-08-20T01:15:08.505Z,21.17
2022-08-20T01:16:08.495Z,21.17
2022-08-20T01:17:08.487Z,21.17
2022-08-20T01:18:08.453Z,21.19
2022-08-20T01:19:29.455Z,21.21
2022-08-20T01:20:09.435Z,21.21
2022-08-20T01:21:08.436Z,21.21
2022-08-20T01:22:08.424Z,21.21
2022-08-20T01:23:08.405Z,21.22
2022-08-20T01:24:08.459Z,21.24
2022-08-20T01:25:08.381Z,21.22
2022-08-20T01:26:08.372Z,21.24
2022-08-20T01:27:08.383Z,21.24
2022-08-20T01:28:08.415Z,21.21
2022-08-20T01:29:08.330Z,21.21
2022-08-20T01:30:08.312Z,21.21
2022-08-20T01:31:08.342Z,21.21
2022-08-20T01:32:08.314Z,21.19
2022-08-20T01:33:08.296Z,21.19
2022-08-20T01:34:08.270Z,21.19
2022-08-20T01:35:08.262Z,21.16
2022-08-20T01:36:08.272Z,21.16
2022-08-20T01:37:08.243Z,21.14
2022-08-20T01:38:08.254Z,21.13
2022-08-20T01:39:08.221Z,21.13
2022-08-20T01:40:09.328Z,21.10
2022-08-20T01:41:08.213Z,21.09
2022-08-20T01:42:08.204Z,21.06
2022-08-20T01:43:08.191Z,21.04
2022-08-20T01:44:11.005Z,21.06
2022-08-20T01:45:09.166Z,21.04
2022-08-20T01:46:08.144Z,21.04
2022-08-20T01:47:08.130Z,21.01
2022-08-20T01:48:08.131Z,21.01
2022-08-20T01:49:13.654Z,21.01
2022-08-20T01:50:09.106Z,20.99
2022-08-20T01:51:08.099Z,20.99
2022-08-20T01:52:08.081Z,20.98
2022-08-20T01:53:08.087Z,20.97
2022-08-20T01:54:08.077Z,20.95
2022-08-20T01:55:08.271Z,20.95
2022-08-20T01:56:08.045Z,20.94
2022-08-20T01:57:08.041Z,20.92
2022-08-20T01:58:08.033Z,20.94
2022-08-20T01:59:08.018Z,20.92
2022-08-20T02:00:08.004Z,20.91
2022-08-20T02:01:08.033Z,20.91
2022-08-20T02:02:07.996Z,20.89
2022-08-20T02:03:07.988Z,20.91
2022-08-20T02:04:07.953Z,20.89
2022-08-20T02:05:08.973Z,20.88
2022-08-20T02:06:07.940Z,20.88
2022-08-20T02:07:07.927Z,20.88
2022-08-20T02:08:07.908Z,20.87
2022-08-20T02:09:07.934Z,20.91
2022-08-20T02:10:07.930Z,20.85
2022-08-20T02:11:07.883Z,20.87
2022-08-20T02:12:07.867Z,20.87
2022-08-20T02:13:07.874Z,20.84
2022-08-20T02:14:07.855Z,20.85
2022-08-20T02:15:07.865Z,20.85
2022-08-20T02:16:07.822Z,20.84
2022-08-20T02:17:07.852Z,20.84
2022-08-20T02:18:08.273Z,20.84
2022-08-20T02:19:07.820Z,20.82
2022-08-20T02:20:07.796Z,20.82
2022-08-20T02:21:07.805Z,20.82
2022-08-20T02:22:07.783Z,20.80
2022-08-20T02:23:07.749Z,20.79
2022-08-20T02:24:07.767Z,20.77
2022-08-20T02:25:07.727Z,20.79
2022-08-20T02:26:07.844Z,20.77
2022-08-20T02:27:07.739Z,20.77
2022-08-20T02:28:07.715Z,20.77
2022-08-20T02:29:07.691Z,20.76
2022-08-20T02:30:07.683Z,20.76
2022-08-20T02:31:07.668Z,20.76
2022-08-20T02:32:32.379Z,20.76
2022-08-20T02:33:17.649Z,20.74
2022-08-20T02:34:18.494Z,20.76
2022-08-20T02:35:10.359Z,20.76
2022-08-20T02:36:07.630Z,20.76
2022-08-20T02:37:07.610Z,20.72
2022-08-20T02:38:07.616Z,20.73
2022-08-20T02:39:07.572Z,20.72
2022-08-20T02:40:07.587Z,20.70
2022-08-20T02:41:07.559Z,20.69
2022-08-20T02:42:07.556Z,20.70
2022-08-20T02:43:07.552Z,20.69
2022-08-20T02:44:07.527Z,20.67
2022-08-20T02:45:07.535Z,20.67
2022-08-20T02:46:07.531Z,20.66
2022-08-20T02:47:07.496Z,20.66
2022-08-20T02:48:07.514Z,20.62
2022-08-20T02:49:07.483Z,20.61
2022-08-20T02:50:07.742Z,20.59
2022-08-20T02:51:07.451Z,20.61
2022-08-20T02:52:07.431Z,20.59
2022-08-20T02:53:07.427Z,20.58
2022-08-20T02:54:07.418Z,20.58
2022-08-20T02:55:07.420Z,20.55
2022-08-20T02:56:07.426Z,20.55
2022-08-20T02:57:07.615Z,20.55
2022-08-20T02:58:07.393Z,20.52
2022-08-20T02:59:07.359Z,20.54
2022-08-20T03:00:07.366Z,20.51
2022-08-20T03:01:07.365Z,20.51
2022-08-20T03:02:07.333Z,20.50
2022-08-20T03:03:07.329Z,20.48
2022-08-20T03:04:07.290Z,20.47
2022-08-20T03:05:07.291Z,20.47
2022-08-20T03:06:07.319Z,20.42
2022-08-20T03:07:07.278Z,20.42
2022-08-20T03:08:07.265Z,20.41
2022-08-20T03:09:07.271Z,20.39
2022-08-20T03:10:07.247Z,20.41
2022-08-20T03:11:07.242Z,20.41
2022-08-20T03:12:07.222Z,20.39
2022-08-20T03:13:07.209Z,20.38
2022-08-20T03:14:07.211Z,20.36
2022-08-20T03:15:07.197Z,20.39
2022-08-20T03:16:08.186Z,20.39
2022-08-20T03:17:07.176Z,20.36
2022-08-20T03:18:07.176Z,20.39
2022-08-20T03:19:07.141Z,20.39
2022-08-20T03:20:07.154Z,20.39
2022-08-20T03:21:07.148Z,20.39
2022-08-20T03:22:07.111Z,20.41
2022-08-20T03:23:07.106Z,20.41
2022-08-20T03:24:07.087Z,20.41
2022-08-20T03:25:07.080Z,20.41
2022-08-20T03:26:07.089Z,20.41
2022-08-20T03:27:07.066Z,20.41
2022-08-20T03:28:07.112Z,20.41
2022-08-20T03:29:07.042Z,20.41
2022-08-20T03:30:07.029Z,20.41
2022-08-20T03:31:07.050Z,20.42
2022-08-20T03:32:07.908Z,20.42
2022-08-20T03:33:06.992Z,20.41
2022-08-20T03:34:06.973Z,20.41
2022-08-20T03:35:06.963Z,20.41
2022-08-20T03:36:06.959Z,20.39
2022-08-20T03:37:06.962Z,20.38
2022-08-20T03:38:06.977Z,20.39
2022-08-20T03:39:06.918Z,20.41
2022-08-20T03:40:06.954Z,20.39
2022-08-20T03:41:06.906Z,20.41
2022-08-20T03:42:06.887Z,20.41
2022-08-20T03:43:06.893Z,20.39
2022-08-20T03:44:06.884Z,20.39
2022-08-20T03:45:06.841Z,20.38
2022-08-20T03:46:06.836Z,20.35
2022-08-20T03:47:07.826Z,20.35
2022-08-20T03:48:06.833Z,20.32
2022-08-20T03:49:06.824Z,20.33
2022-08-20T03:50:06.806Z,20.31
2022-08-20T03:51:06.786Z,20.31
2022-08-20T03:52:06.823Z,20.31
2022-08-20T03:53:06.779Z,20.29
2022-08-20T03:54:07.758Z,20.29
2022-08-20T03:55:06.741Z,20.29
2022-08-20T03:56:06.749Z,20.28
2022-08-20T03:57:12.324Z,20.28
2022-08-20T03:58:07.794Z,20.28
2022-08-20T03:59:06.705Z,20.28
2022-08-20T04:00:06.723Z,20.26
2022-08-20T04:01:06.746Z,20.26
2022-08-20T04:02:06.729Z,20.24
2022-08-20T04:03:06.685Z,20.24
2022-08-20T04:04:06.680Z,20.24
2022-08-20T04:05:07.640Z,20.24
2022-08-20T04:06:06.639Z,20.24
2022-08-20T04:07:06.619Z,20.21
2022-08-20T04:08:06.616Z,20.21
2022-08-20T04:09:06.611Z,20.21
2022-08-20T04:10:06.598Z,20.21
2022-08-20T04:11:06.570Z,20.21
2022-08-20T04:12:06.570Z,20.21
2022-08-20T04:13:06.556Z,20.20
2022-08-20T04:14:06.547Z,20.20
2022-08-20T04:15:06.528Z,20.20
2022-08-20T04:16:06.534Z,20.18
2022-08-20T04:17:06.495Z,20.17
2022-08-20T04:18:06.482Z,20.17
2022-08-20T04:19:06.583Z,20.16
2022-08-20T04:20:06.483Z,20.16
2022-08-20T04:21:06.459Z,20.16
2022-08-20T04:22:06.478Z,20.16
2022-08-20T04:23:06.443Z,20.14
2022-08-20T04:24:06.434Z,20.14
2022-08-20T04:25:06.434Z,20.14
2022-08-20T04:26:06.425Z,20.10
2022-08-20T04:27:06.423Z,20.10
2022-08-20T04:28:06.393Z,20.08
2022-08-20T04:29:06.449Z,20.08
2022-08-20T04:30:06.360Z,20.05
2022-08-20T04:31:06.378Z,20.05
2022-08-20T04:32:06.385Z,20.02
2022-08-20T04:33:06.338Z,20.01
2022-08-20T04:34:06.314Z,19.99
2022-08-20T04:35:06.310Z,19.98
2022-08-20T04:36:06.566Z,19.96
2022-08-20T04:37:06.297Z,19.95
2022-08-20T04:38:07.272Z,19.91
2022-08-20T04:39:06.285Z,19.86
2022-08-20T04:40:06.479Z,19.84
2022-08-20T04:41:06.268Z,19.84
2022-08-20T04:42:06.268Z,19.81
2022-08-20T04:43:06.244Z,19.78
2022-08-20T04:44:06.240Z,19.78
2022-08-20T04:45:06.217Z,19.76
2022-08-20T04:46:06.237Z,19.73
2022-08-20T04:47:06.173Z,19.71
2022-08-20T04:48:06.174Z,19.69
2022-08-20T04:49:06.186Z,19.68
2022-08-20T04:50:06.138Z,19.68
2022-08-20T04:51:06.172Z,19.65
2022-08-20T04:52:06.134Z,19.61
2022-08-20T04:53:06.115Z,19.56
2022-08-20T04:54:06.136Z,19.56
2022-08-20T04:55:06.109Z,19.51
2022-08-20T04:56:07.551Z,19.46
2022-08-20T04:57:06.120Z,19.46
2022-08-20T04:58:06.070Z,19.43
2022-08-20T04:59:06.037Z,19.43
2022-08-20T05:00:06.335Z,19.40
2022-08-20T05:01:06.127Z,19.43
2022-08-20T05:02:06.048Z,19.41
2022-08-20T05:03:06.107Z,19.43
2022-08-20T05:04:05.990Z,19.40
2022-08-20T05:05:06.004Z,19.40
2022-08-20T05:06:05.979Z,19.40
2022-08-20T05:07:05.965Z,19.40
2022-08-20T05:08:05.956Z,19.33
2022-08-20T05:09:06.975Z,19.31
2022-08-20T05:10:05.960Z,19.33
2022-08-20T05:11:30.111Z,19.32
2022-08-20T05:12:06.945Z,19.31
2022-08-20T05:13:05.894Z,19.28
2022-08-20T05:14:05.901Z,19.26
2022-08-20T05:15:05.924Z,19.23
2022-08-20T05:16:05.881Z,19.25
2022-08-20T05:17:05.871Z,19.23
2022-08-20T05:18:05.841Z,19.21
2022-08-20T05:19:05.902Z,19.18
2022-08-20T05:20:05.820Z,19.16
2022-08-20T05:21:05.813Z,19.14
2022-08-20T05:22:05.797Z,19.14
2022-08-20T05:23:05.779Z,19.14
2022-08-20T05:24:05.801Z,19.13
2022-08-20T05:25:05.750Z,19.13
2022-08-20T05:26:05.756Z,19.13
2022-08-20T05:27:05.738Z,19.18
2022-08-20T05:28:05.779Z,19.16
2022-08-20T05:29:05.879Z,19.21
2022-08-20T05:30:05.731Z,19.21
2022-08-20T05:31:05.883Z,19.21
2022-08-20T05:32:05.774Z,19.18
2022-08-20T05:33:05.712Z,19.21
2022-08-20T05:34:05.683Z,19.18
2022-08-20T05:35:05.681Z,19.13
2022-08-20T05:36:05.654Z,19.14
2022-08-20T05:37:05.659Z,19.19
2022-08-20T05:38:05.650Z,19.21
2022-08-20T05:39:05.611Z,19.19
2022-08-20T05:40:05.682Z,19.21
2022-08-20T05:41:05.618Z,19.18
2022-08-20T05:42:05.620Z,19.18
2022-08-20T05:43:05.560Z,19.19
2022-08-20T05:44:05.562Z,19.18
2022-08-20T05:45:11.177Z,19.19
2022-08-20T05:46:06.586Z,19.19
2022-08-20T05:47:05.545Z,19.22
2022-08-20T05:48:05.546Z,19.23
2022-08-20T05:49:05.512Z,19.28
2022-08-20T05:50:05.593Z,19.25
2022-08-20T05:51:05.505Z,19.28
2022-08-20T05:52:05.535Z,19.28
2022-08-20T05:53:05.507Z,19.25
2022-08-20T05:54:05.574Z,19.25
2022-08-20T05:55:05.443Z,19.23
2022-08-20T05:56:05.440Z,19.25
2022-08-20T05:57:05.420Z,19.29
2022-08-20T05:58:05.428Z,19.25
2022-08-20T05:59:05.413Z,19.23
2022-08-20T06:00:05.603Z,19.22
2022-08-20T06:01:05.473Z,19.25
2022-08-20T06:02:06.580Z,19.28
2022-08-20T06:03:05.352Z,19.26
2022-08-20T06:04:05.356Z,19.25
2022-08-20T06:05:05.386Z,19.28
2022-08-20T06:06:05.407Z,19.25
2022-08-20T06:07:06.305Z,19.31
2022-08-20T06:08:07.707Z,19.32
2022-08-20T06:09:05.304Z,19.33
2022-08-20T06:10:05.265Z,19.32
2022-08-20T06:11:05.333Z,19.36
2022-08-20T06:12:05.287Z,19.39
2022-08-20T06:13:05.270Z,19.39
2022-08-20T06:14:05.396Z,19.41
2022-08-20T06:15:05.270Z,19.47
2022-08-20T06:16:06.947Z,19.50
2022-08-20T06:17:05.281Z,19.55
2022-08-20T06:18:09.985Z,19.61
2022-08-20T06:19:06.198Z,19.61
2022-08-20T06:20:06.175Z,19.62
2022-08-20T06:21:05.152Z,19.61
2022-08-20T06:22:18.095Z,19.63
2022-08-20T06:23:06.133Z,19.66
2022-08-20T06:24:05.272Z,19.65
2022-08-20T06:25:05.117Z,19.68
2022-08-20T06:26:05.098Z,19.61
2022-08-20T06:27:05.108Z,19.55
2022-08-20T06:28:05.082Z,19.54
2022-08-20T06:29:05.086Z,19.59
2022-08-20T06:30:05.082Z,19.54
2022-08-20T06:31:05.048Z,19.48
2022-08-20T06:32:05.040Z,19.50
2022-08-20T06:33:05.361Z,19.51
2022-08-20T06:34:05.022Z,19.51
2022-08-20T06:35:05.024Z,19.54
2022-08-20T06:36:05.078Z,19.54
2022-08-20T06:37:04.970Z,19.50
2022-08-20T06:38:05.011Z,19.51
2022-08-20T06:39:04.965Z,19.54
2022-08-20T06:40:05.018Z,19.62
2022-08-20T06:41:04.969Z,19.63
2022-08-20T06:42:04.938Z,19.68
2022-08-20T06:43:04.922Z,19.65
2022-08-20T06:44:04.965Z,19.59
2022-08-20T06:45:04.936Z,19.59
2022-08-20T06:46:04.904Z,19.54
2022-08-20T06:47:04.917Z,19.54
2022-08-20T06:48:04.843Z,19.56
2022-08-20T06:49:04.848Z,19.61
2022-08-20T06:50:04.960Z,19.63
2022-08-20T06:51:05.028Z,19.54
2022-08-20T06:52:04.832Z,19.48
2022-08-20T06:53:05.012Z,19.54
2022-08-20T06:54:04.927Z,19.56
2022-08-20T06:55:04.780Z,19.56
2022-08-20T06:56:04.927Z,19.61
2022-08-20T06:57:05.361Z,19.66
2022-08-20T06:58:04.752Z,19.66
2022-08-20T06:59:04.750Z,19.66
2022-08-20T07:00:04.795Z,19.59
2022-08-20T07:01:10.260Z,19.61
2022-08-20T07:02:05.855Z,19.65
2022-08-20T07:03:04.868Z,19.66
2022-08-20T07:04:05.518Z,19.66
2022-08-20T07:05:04.857Z,19.62
2022-08-20T07:06:04.667Z,19.65
2022-08-20T07:07:04.658Z,19.66
2022-08-20T07:08:04.650Z,19.69
2022-08-20T07:09:04.626Z,19.71
2022-08-20T07:10:04.827Z,19.76
2022-08-20T07:11:04.889Z,19.83
2022-08-20T07:12:04.613Z,19.88
2022-08-20T07:13:04.584Z,19.96
2022-08-20T07:14:04.611Z,19.95
2022-08-20T07:15:04.582Z,19.94
2022-08-20T07:16:04.563Z,19.91
2022-08-20T07:17:04.539Z,19.84
2022-08-20T07:18:05.533Z,19.84
2022-08-20T07:19:04.527Z,19.83
2022-08-20T07:20:04.638Z,19.74
2022-08-20T07:21:04.796Z,19.63
2022-08-20T07:22:05.212Z,19.66
2022-08-20T07:23:04.495Z,19.73
2022-08-20T07:24:04.477Z,19.71
2022-08-20T07:25:04.601Z,19.66
2022-08-20T07:26:04.445Z,19.68
2022-08-20T07:27:04.435Z,19.66
2022-08-20T07:28:04.417Z,19.66
2022-08-20T07:29:04.417Z,19.73
2022-08-20T07:30:04.458Z,19.76
2022-08-20T07:31:13.211Z,19.81
2022-08-20T07:32:05.368Z,19.84
2022-08-20T07:33:04.387Z,19.86
2022-08-20T07:34:04.342Z,19.74
2022-08-20T07:35:06.485Z,19.77
2022-08-20T07:36:04.338Z,19.81
2022-08-20T07:37:04.342Z,19.88
2022-08-20T07:38:04.308Z,19.92
2022-08-20T07:39:05.713Z,19.95
2022-08-20T07:40:04.393Z,19.99
2022-08-20T07:41:04.350Z,20.02
2022-08-20T07:42:04.261Z,20.05
2022-08-20T07:43:04.273Z,20.06
2022-08-20T07:44:04.940Z,20.02
2022-08-20T07:45:04.285Z,20.03
2022-08-20T07:46:04.236Z,19.98
2022-08-20T07:47:04.277Z,20.01
2022-08-20T07:48:04.217Z,20.03
2022-08-20T07:49:04.310Z,20.03
2022-08-20T07:50:04.534Z,20.06
2022-08-20T07:51:04.171Z,20.10
2022-08-20T07:52:04.268Z,20.08
2022-08-20T07:53:04.143Z,20.13
2022-08-20T07:54:04.130Z,20.16
2022-08-20T07:55:04.131Z,20.21
2022-08-20T07:56:04.112Z,20.29
2022-08-20T07:57:04.349Z,20.32
2022-08-20T07:58:04.104Z,20.38
2022-08-20T07:59:04.090Z,20.43
2022-08-20T08:00:04.087Z,20.38
2022-08-20T08:01:04.229Z,20.39
2022-08-20T08:02:04.048Z,20.43
2022-08-20T08:03:04.024Z,20.51
2022-08-20T08:04:04.383Z,20.58
2022-08-20T08:05:04.037Z,20.64
2022-08-20T08:06:04.341Z,20.64
2022-08-20T08:07:04.014Z,20.66
2022-08-20T08:08:07.226Z,20.73
2022-08-20T08:09:03.997Z,20.77
2022-08-20T08:10:03.974Z,20.77
2022-08-20T08:11:03.948Z,20.87
2022-08-20T08:12:03.935Z,20.84
2022-08-20T08:13:03.920Z,20.92
2022-08-20T08:14:04.019Z,20.94
2022-08-20T08:15:04.029Z,20.95
2022-08-20T08:16:04.065Z,20.97
2022-08-20T08:17:03.910Z,21.03
2022-08-20T08:18:03.886Z,21.10
2022-08-20T08:19:03.847Z,21.09
2022-08-20T08:20:04.022Z,21.09
2022-08-20T08:21:03.854Z,21.19
2022-08-20T08:22:04.012Z,21.28
2022-08-20T08:23:03.842Z,21.50
2022-08-20T08:24:03.815Z,21.67
2022-08-20T08:25:03.818Z,21.68
2022-08-20T08:26:04.188Z,21.67
2022-08-20T08:27:03.871Z,21.82
2022-08-20T08:28:03.757Z,21.96
2022-08-20T08:29:03.765Z,22.06
2022-08-20T08:30:03.755Z,22.10
2022-08-20T08:31:03.763Z,22.20
2022-08-20T08:32:03.716Z,22.35
2022-08-20T08:33:03.742Z,22.52
2022-08-20T08:34:03.703Z,22.65
2022-08-20T08:35:03.781Z,22.75
2022-08-20T08:36:03.687Z,22.77
2022-08-20T08:37:03.729Z,22.79
2022-08-20T08:38:03.679Z,22.82
2022-08-20T08:39:03.647Z,22.76
2022-08-20T08:40:04.653Z,22.75
2022-08-20T08:41:03.637Z,22.75
2022-08-20T08:42:03.612Z,22.61
2022-08-20T08:43:03.600Z,22.52
2022-08-20T08:44:03.646Z,22.39
2022-08-20T08:45:03.567Z,22.42
2022-08-20T08:46:03.573Z,22.51
2022-08-20T08:47:03.634Z,22.62
2022-08-20T08:48:03.540Z,22.83
2022-08-20T08:49:03.586Z,23.09
2022-08-20T08:50:03.950Z,23.25
2022-08-20T08:51:03.548Z,23.46
2022-08-20T08:52:03.534Z,23.50
2022-08-20T08:53:03.516Z,23.57
2022-08-20T08:54:06.865Z,23.75
2022-08-20T08:55:03.487Z,23.78
2022-08-20T08:56:03.594Z,23.72
2022-08-20T08:57:03.575Z,23.54
2022-08-20T08:58:04.316Z,23.35
2022-08-20T08:59:04.424Z,23.13
2022-08-20T09:00:05.207Z,23.01
2022-08-20T09:01:06.845Z,22.85
2022-08-20T09:02:04.427Z,22.70
2022-08-20T09:03:03.395Z,22.61
2022-08-20T09:04:03.386Z,22.43
2022-08-20T09:05:03.349Z,22.33
2022-08-20T09:06:03.406Z,22.17
2022-08-20T09:07:03.360Z,22.09
2022-08-20T09:08:03.608Z,22.02
2022-08-20T09:09:03.378Z,22.00
2022-08-20T09:10:03.414Z,22.03
2022-08-20T09:11:03.365Z,21.99
2022-08-20T09:12:03.280Z,21.99
2022-08-20T09:13:03.282Z,21.96
2022-08-20T09:14:03.265Z,21.96
2022-08-20T09:15:03.244Z,22.02
2022-08-20T09:16:03.245Z,22.05
2022-08-20T09:17:03.932Z,22.05
2022-08-20T09:18:03.223Z,22.07
2022-08-20T09:19:03.445Z,22.10
2022-08-20T09:20:03.209Z,22.15
2022-08-20T09:21:03.196Z,22.22
2022-08-20T09:22:03.168Z,22.37
2022-08-20T09:23:03.172Z,22.47
2022-08-20T09:24:03.185Z,22.61
2022-08-20T09:25:03.176Z,22.77
2022-08-20T09:26:03.287Z,22.90
2022-08-20T09:27:03.223Z,22.95
2022-08-20T09:28:03.788Z,22.97
2022-08-20T09:29:03.105Z,22.98
2022-08-20T09:30:03.101Z,23.01
2022-08-20T09:31:03.336Z,23.00
2022-08-20T09:32:03.067Z,22.95
2022-08-20T09:33:03.432Z,22.88
2022-08-20T09:34:03.120Z,22.79
2022-08-20T09:35:06.587Z,22.75
2022-08-20T09:36:04.015Z,22.57
2022-08-20T09:37:04.021Z,22.42
2022-08-20T09:38:03.060Z,22.36
2022-08-20T09:39:03.593Z,22.20
2022-08-20T09:40:03.256Z,21.96
2022-08-20T09:41:03.068Z,21.84
2022-08-20T09:42:02.958Z,21.77
2022-08-20T09:43:02.956Z,21.72
2022-08-20T09:44:03.027Z,21.71
2022-08-20T09:45:02.943Z,21.67
2022-08-20T09:46:02.914Z,21.67
2022-08-20T09:47:02.904Z,21.74
2022-08-20T09:48:02.981Z,21.82
2022-08-20T09:49:02.948Z,21.83
2022-08-20T09:50:02.993Z,21.79
2022-08-20T09:51:02.990Z,21.82
2022-08-20T09:52:02.992Z,21.77
2022-08-20T09:53:02.947Z,21.83
2022-08-20T09:54:02.918Z,21.84
2022-08-20T09:55:02.821Z,21.88
2022-08-20T09:56:02.829Z,21.92
2022-08-20T09:57:02.790Z,21.96
2022-08-20T09:58:02.993Z,21.96
2022-08-20T09:59:03.180Z,22.05
2022-08-20T10:00:02.772Z,22.06
2022-08-20T10:01:03.001Z,22.10
2022-08-20T10:02:03.036Z,22.12
2022-08-20T10:03:02.737Z,22.15
2022-08-20T10:04:02.712Z,22.25
2022-08-20T10:05:02.695Z,22.39
2022-08-20T10:06:02.716Z,22.52
2022-08-20T10:07:03.565Z,22.64
2022-08-20T10:08:03.060Z,22.67
2022-08-20T10:09:02.676Z,22.65
2022-08-20T10:10:02.885Z,22.83
2022-08-20T10:11:02.771Z,23.46
2022-08-20T10:12:02.687Z,23.46
2022-08-20T10:13:02.662Z,23.90
2022-08-20T10:14:02.613Z,23.80
2022-08-20T10:15:02.761Z,23.55
2022-08-20T10:16:02.717Z,23.70
2022-08-20T10:17:02.764Z,23.84
2022-08-20T10:18:02.819Z,24.58
2022-08-20T10:19:02.807Z,25.00
2022-08-20T10:20:02.933Z,25.38
2022-08-20T10:21:02.977Z,25.91
2022-08-20T10:22:02.563Z,26.65
2022-08-20T10:23:02.549Z,26.94
2022-08-20T10:24:02.503Z,26.73
2022-08-20T10:25:02.501Z,26.15
2022-08-20T10:26:02.479Z,25.69
2022-08-20T10:27:02.474Z,25.43
2022-08-20T10:28:02.469Z,25.23
2022-08-20T10:29:02.455Z,24.88
2022-08-20T10:30:02.518Z,24.78
2022-08-20T10:31:02.422Z,24.65
2022-08-20T10:32:02.419Z,24.58
2022-08-20T10:33:02.471Z,24.31
2022-08-20T10:34:02.497Z,23.88
2022-08-20T10:35:02.488Z,23.75
2022-08-20T10:36:02.479Z,23.72
2022-08-20T10:37:02.420Z,23.47
2022-08-20T10:38:02.349Z,23.65
2022-08-20T10:39:02.341Z,24.13
2022-08-20T10:40:02.451Z,24.61
2022-08-20T10:41:02.355Z,24.88
2022-08-20T10:42:02.305Z,24.99
2022-08-20T10:43:02.291Z,25.18
2022-08-20T10:44:02.498Z,25.36
2022-08-20T10:45:02.283Z,25.52
2022-08-20T10:46:02.250Z,25.54
2022-08-20T10:47:02.250Z,25.43
2022-08-20T10:48:02.231Z,25.42
2022-08-20T10:49:02.237Z,25.27
2022-08-20T10:50:02.400Z,25.06
2022-08-20T10:51:02.225Z,25.03
2022-08-20T10:52:02.321Z,25.02
2022-08-20T10:53:02.277Z,24.95
2022-08-20T10:54:02.189Z,24.85
2022-08-20T10:55:02.290Z,24.73
2022-08-20T10:56:02.170Z,24.53
2022-08-20T10:57:02.136Z,24.03
2022-08-20T10:58:02.126Z,23.73
2022-08-20T10:59:02.113Z,23.65
2022-08-20T11:00:02.125Z,23.58
2022-08-20T11:01:02.101Z,23.33
2022-08-20T11:02:02.171Z,23.23
2022-08-20T11:03:02.315Z,23.17
2022-08-20T11:04:02.086Z,22.94
2022-08-20T11:05:02.066Z,22.80
2022-08-20T11:06:02.136Z,22.73
2022-08-20T11:07:02.053Z,22.67
2022-08-20T11:08:02.444Z,22.65
2022-08-20T11:09:02.035Z,22.68
2022-08-20T11:10:03.956Z,22.76
2022-08-20T11:11:02.001Z,22.82
2022-08-20T11:12:02.360Z,22.82
2022-08-20T11:13:01.973Z,22.85
2022-08-20T11:14:01.954Z,22.91
2022-08-20T11:15:02.001Z,22.92
2022-08-20T11:16:02.345Z,23.05
2022-08-20T11:17:02.366Z,23.20
2022-08-20T11:18:01.926Z,23.39
2022-08-20T11:19:01.910Z,23.54
2022-08-20T11:20:02.003Z,23.65
2022-08-20T11:21:01.995Z,23.83
2022-08-20T11:22:01.900Z,24.03
2022-08-20T11:23:01.930Z,24.05
2022-08-20T11:24:03.050Z,24.13
2022-08-20T11:25:01.838Z,24.15
2022-08-20T11:26:01.826Z,24.27
2022-08-20T11:27:01.825Z,24.32
2022-08-20T11:28:01.837Z,24.37
2022-08-20T11:29:01.823Z,24.40
2022-08-20T11:30:01.783Z,24.45
2022-08-20T11:31:01.913Z,24.30
2022-08-20T11:32:01.817Z,24.15
2022-08-20T11:33:02.385Z,23.95
2022-08-20T11:34:01.909Z,23.90
2022-08-20T11:35:13.786Z,23.75
2022-08-20T11:36:02.717Z,23.65
2022-08-20T11:37:01.725Z,23.46
2022-08-20T11:38:01.687Z,23.46
2022-08-20T11:39:01.708Z,23.40
2022-08-20T11:40:01.766Z,23.33
2022-08-20T11:41:01.680Z,23.35
2022-08-20T11:42:01.681Z,23.31
2022-08-20T11:43:17.947Z,23.35
2022-08-20T11:44:20.088Z,23.40
2022-08-20T11:45:02.649Z,23.43
2022-08-20T11:46:01.988Z,23.43
2022-08-20T11:47:01.627Z,23.47
2022-08-20T11:48:02.419Z,23.58
2022-08-20T11:49:02.039Z,23.90
2022-08-20T11:50:01.651Z,24.16
2022-08-20T11:51:01.606Z,24.42
2022-08-20T11:52:01.653Z,24.69
2022-08-20T11:53:01.876Z,25.02
2022-08-20T11:54:01.760Z,25.33
2022-08-20T11:55:01.586Z,25.42
2022-08-20T11:56:01.839Z,25.28
2022-08-20T11:57:01.493Z,25.20
2022-08-20T11:58:01.566Z,25.20
2022-08-20T11:59:01.491Z,25.28
2022-08-20T12:00:01.471Z,25.45
2022-08-20T12:01:01.492Z,25.43
2022-08-20T12:02:03.315Z,25.36
2022-08-20T12:03:01.512Z,25.05
2022-08-20T12:04:01.429Z,24.88
2022-08-20T12:05:01.457Z,25.00
2022-08-20T12:06:01.418Z,24.99
2022-08-20T12:07:01.373Z,25.18
2022-08-20T12:08:01.381Z,25.62
2022-08-20T12:09:01.345Z,25.90
2022-08-20T12:10:01.453Z,25.67
2022-08-20T12:11:01.344Z,25.35
2022-08-20T12:12:05.846Z,25.35
2022-08-20T12:13:02.529Z,25.46
2022-08-20T12:14:01.675Z,25.75
2022-08-20T12:15:01.318Z,25.87
2022-08-20T12:16:01.293Z,25.90
2022-08-20T12:17:01.443Z,25.77
2022-08-20T12:18:01.270Z,25.91
2022-08-20T12:19:01.681Z,26.09
2022-08-20T12:20:01.701Z,26.35
2022-08-20T12:21:01.239Z,26.23
2022-08-20T12:22:01.236Z,26.44
2022-08-20T12:23:02.220Z,26.73
2022-08-20T12:24:01.253Z,26.65
2022-08-20T12:25:01.226Z,26.81
2022-08-20T12:26:01.281Z,27.12
2022-08-20T12:27:02.139Z,27.43
2022-08-20T12:28:01.167Z,27.67
2022-08-20T12:29:01.173Z,27.28
2022-08-20T12:30:01.234Z,27.27
2022-08-20T12:31:01.697Z,27.00
2022-08-20T12:32:01.917Z,26.50
2022-08-20T12:33:01.128Z,26.09
2022-08-20T12:34:01.465Z,26.01
2022-08-20T12:35:01.100Z,26.10
2022-08-20T12:36:01.489Z,26.10
2022-08-20T12:37:01.228Z,26.02
2022-08-20T12:38:01.063Z,25.90
2022-08-20T12:39:01.126Z,26.10
2022-08-20T12:40:01.311Z,26.44
2022-08-20T12:41:01.026Z,26.82
2022-08-20T12:42:01.018Z,27.24
2022-08-20T12:43:01.019Z,27.27
2022-08-20T12:44:00.995Z,27.27
2022-08-20T12:45:01.037Z,27.02
2022-08-20T12:46:00.982Z,27.02
2022-08-20T12:47:01.058Z,27.32
2022-08-20T12:48:00.974Z,27.97
2022-08-20T12:49:02.892Z,28.44
2022-08-20T12:50:00.957Z,28.30
2022-08-20T12:51:00.955Z,28.21
2022-08-20T12:52:01.044Z,27.57